DLH88Y EDDF-LWSK
Flight info
| Callsign | DLH88Y |
|---|---|
| Flight time | 1h 57m |
| Altitude | 37000 |
| Route | CINDY8S/18 CINDY Z74 LAMPU DCT NOMBO Y161 MAH DCT VAVOR DCT RADIZ DCT KUSIB DCT MEDUX UM867 KOGAT |
| Aircraft | A320/M-SDE2E3FGIJ1LORWXYZ/HB1 |
Departure
| Time | 2026-05-07 11:09 |
|---|---|
| Airport | Frankfurt Main Airport (EDDF) |
Arrival
| Time | 2026-05-07 13:06 |
|---|---|
| Airport | Skopje International Airport (LWSK) |
| Time | Latitude | Longitude | Altitude | Speed | Heading |
|---|---|---|---|---|---|
| 2026-05-07 10:41 | 50.04686 | 8.56705 | 369 ft | 0 kts | 115° |
| 2026-05-07 10:54 | 50.04686 | 8.56704 | 369 ft | 0 kts | 115° |
| 2026-05-07 10:55 | 50.04691 | 8.56688 | 369 ft | 2 kts | 115° |
| 2026-05-07 10:56 | 50.04697 | 8.56667 | 368 ft | 2 kts | 115° |
| 2026-05-07 10:56 | 50.04704 | 8.56646 | 368 ft | 2 kts | 115° |
| 2026-05-07 10:56 | 50.04710 | 8.56625 | 368 ft | 2 kts | 115° |
| 2026-05-07 10:56 | 50.04715 | 8.56606 | 368 ft | 1 kts | 120° |
| 2026-05-07 10:57 | 50.04723 | 8.56598 | 368 ft | 1 kts | 185° |
| 2026-05-07 10:57 | 50.04732 | 8.56605 | 369 ft | 1 kts | 240° |
| 2026-05-07 10:57 | 50.04739 | 8.56625 | 369 ft | 2 kts | 231° |
| 2026-05-07 10:57 | 50.04748 | 8.56642 | 369 ft | 0 kts | 234° |
| 2026-05-07 10:58 | 50.04757 | 8.56657 | 369 ft | 1 kts | 209° |
| 2026-05-07 10:58 | 50.04768 | 8.56664 | 369 ft | 2 kts | 203° |
| 2026-05-07 10:58 | 50.04776 | 8.56669 | 369 ft | 0 kts | 212° |
| 2026-05-07 10:58 | 50.04781 | 8.56675 | 369 ft | 0 kts | 205° |
| 2026-05-07 11:00 | 50.04769 | 8.56666 | 369 ft | 9 kts | 206° |
| 2026-05-07 11:00 | 50.04693 | 8.56540 | 367 ft | 19 kts | 208° |
| 2026-05-07 11:01 | 50.04561 | 8.56443 | 364 ft | 21 kts | 206° |
| 2026-05-07 11:01 | 50.04495 | 8.56297 | 362 ft | 17 kts | 251° |
| 2026-05-07 11:01 | 50.04453 | 8.56119 | 361 ft | 16 kts | 250° |
| 2026-05-07 11:01 | 50.04379 | 8.56034 | 360 ft | 15 kts | 159° |
| 2026-05-07 11:02 | 50.04273 | 8.56055 | 357 ft | 15 kts | 217° |
| 2026-05-07 11:02 | 50.04226 | 8.55884 | 355 ft | 18 kts | 250° |
| 2026-05-07 11:02 | 50.04179 | 8.55683 | 353 ft | 20 kts | 250° |
| 2026-05-07 11:02 | 50.04128 | 8.55470 | 354 ft | 21 kts | 251° |
| 2026-05-07 11:03 | 50.04073 | 8.55242 | 352 ft | 24 kts | 250° |
| 2026-05-07 11:03 | 50.04011 | 8.54981 | 346 ft | 27 kts | 249° |
| 2026-05-07 11:03 | 50.03944 | 8.54703 | 342 ft | 28 kts | 249° |
| 2026-05-07 11:03 | 50.03876 | 8.54419 | 341 ft | 27 kts | 251° |
| 2026-05-07 11:04 | 50.03786 | 8.54167 | 341 ft | 25 kts | 250° |
| 2026-05-07 11:04 | 50.03728 | 8.53918 | 345 ft | 23 kts | 250° |
| 2026-05-07 11:04 | 50.03671 | 8.53685 | 346 ft | 23 kts | 250° |
| 2026-05-07 11:04 | 50.03613 | 8.53453 | 345 ft | 23 kts | 250° |
| 2026-05-07 11:05 | 50.03557 | 8.53210 | 340 ft | 24 kts | 250° |
| 2026-05-07 11:05 | 50.03495 | 8.52961 | 339 ft | 24 kts | 248° |
| 2026-05-07 11:05 | 50.03431 | 8.52716 | 338 ft | 24 kts | 249° |
| 2026-05-07 11:05 | 50.03347 | 8.52594 | 336 ft | 3 kts | 181° |
| 2026-05-07 11:06 | 50.03344 | 8.52594 | 336 ft | 0 kts | 180° |
| 2026-05-07 11:07 | 50.03335 | 8.52593 | 336 ft | 2 kts | 181° |
| 2026-05-07 11:08 | 50.03328 | 8.52593 | 336 ft | 0 kts | 180° |
| 2026-05-07 11:08 | 50.03316 | 8.52594 | 336 ft | 6 kts | 180° |
| 2026-05-07 11:08 | 50.03045 | 8.52596 | 330 ft | 78 kts | 180° |
| 2026-05-07 11:09 | 50.02260 | 8.52604 | 327 ft | 143 kts | 179° |
| 2026-05-07 11:09 | 50.01190 | 8.52629 | 714 ft | 160 kts | 182° |
| 2026-05-07 11:09 | 50.00055 | 8.52612 | 1291 ft | 169 kts | 183° |
| 2026-05-07 11:09 | 49.98880 | 8.52581 | 1968 ft | 173 kts | 182° |
| 2026-05-07 11:10 | 49.97648 | 8.52604 | 2565 ft | 185 kts | 177° |
| 2026-05-07 11:10 | 49.96423 | 8.53305 | 3038 ft | 202 kts | 137° |
| 2026-05-07 11:10 | 49.95613 | 8.55173 | 3504 ft | 220 kts | 115° |
| 2026-05-07 11:10 | 49.94887 | 8.57370 | 4121 ft | 237 kts | 116° |
| 2026-05-07 11:11 | 49.94230 | 8.59706 | 4952 ft | 241 kts | 104° |
| 2026-05-07 11:11 | 49.93949 | 8.62292 | 5729 ft | 249 kts | 93° |
| 2026-05-07 11:11 | 49.93847 | 8.65059 | 6315 ft | 266 kts | 91° |
| 2026-05-07 11:11 | 49.93703 | 8.67931 | 7020 ft | 278 kts | 101° |
| 2026-05-07 11:12 | 49.92819 | 8.70610 | 7882 ft | 285 kts | 133° |
| 2026-05-07 11:12 | 49.91291 | 8.72478 | 8776 ft | 287 kts | 146° |
| 2026-05-07 11:12 | 49.89623 | 8.74258 | 9612 ft | 292 kts | 142° |
| 2026-05-07 11:12 | 49.88186 | 8.76442 | 10432 ft | 295 kts | 127° |
| 2026-05-07 11:13 | 49.87070 | 8.79130 | 11262 ft | 298 kts | 119° |
| 2026-05-07 11:13 | 49.86069 | 8.81923 | 12055 ft | 301 kts | 118° |
| 2026-05-07 11:13 | 49.85065 | 8.84765 | 12828 ft | 305 kts | 118° |
| 2026-05-07 11:13 | 49.84039 | 8.87646 | 13562 ft | 309 kts | 118° |
| 2026-05-07 11:14 | 49.82990 | 8.90568 | 14285 ft | 313 kts | 118° |
| 2026-05-07 11:14 | 49.81937 | 8.93476 | 14981 ft | 316 kts | 118° |
| 2026-05-07 11:14 | 49.80847 | 8.96471 | 15669 ft | 319 kts | 118° |
| 2026-05-07 11:14 | 49.79767 | 8.99437 | 16321 ft | 323 kts | 118° |
| 2026-05-07 11:15 | 49.78665 | 9.02461 | 16983 ft | 325 kts | 119° |
| 2026-05-07 11:15 | 49.77548 | 9.05517 | 17610 ft | 329 kts | 118° |
| 2026-05-07 11:15 | 49.76524 | 9.08670 | 18232 ft | 331 kts | 111° |
| 2026-05-07 11:15 | 49.75757 | 9.11996 | 18876 ft | 332 kts | 104° |
| 2026-05-07 11:16 | 49.75176 | 9.15442 | 19511 ft | 335 kts | 104° |
| 2026-05-07 11:16 | 49.74343 | 9.18790 | 20098 ft | 339 kts | 117° |
| 2026-05-07 11:16 | 49.73035 | 9.21809 | 20694 ft | 342 kts | 128° |
| 2026-05-07 11:16 | 49.71466 | 9.24633 | 21291 ft | 346 kts | 131° |
| 2026-05-07 11:17 | 49.69864 | 9.27401 | 21873 ft | 348 kts | 131° |
| 2026-05-07 11:17 | 49.68259 | 9.30176 | 22443 ft | 351 kts | 131° |
| 2026-05-07 11:17 | 49.66636 | 9.33010 | 23005 ft | 354 kts | 130° |
| 2026-05-07 11:17 | 49.65018 | 9.35852 | 23552 ft | 357 kts | 130° |
| 2026-05-07 11:18 | 49.63376 | 9.38720 | 24081 ft | 360 kts | 132° |
| 2026-05-07 11:18 | 49.61541 | 9.41389 | 24600 ft | 364 kts | 140° |
| 2026-05-07 11:18 | 49.59498 | 9.43653 | 25111 ft | 367 kts | 147° |
| 2026-05-07 11:18 | 49.57299 | 9.45705 | 25621 ft | 370 kts | 149° |
| 2026-05-07 11:19 | 49.55087 | 9.47700 | 26102 ft | 373 kts | 149° |
| 2026-05-07 11:19 | 49.52827 | 9.49735 | 26598 ft | 376 kts | 149° |
| 2026-05-07 11:19 | 49.50598 | 9.51751 | 27073 ft | 378 kts | 148° |
| 2026-05-07 11:19 | 49.48317 | 9.53822 | 27528 ft | 381 kts | 148° |
| 2026-05-07 11:20 | 49.46048 | 9.55887 | 27962 ft | 384 kts | 149° |
| 2026-05-07 11:20 | 49.43730 | 9.57995 | 28388 ft | 387 kts | 148° |
| 2026-05-07 11:20 | 49.41415 | 9.60098 | 28808 ft | 390 kts | 148° |
| 2026-05-07 11:20 | 49.39069 | 9.62229 | 29213 ft | 393 kts | 148° |
| 2026-05-07 11:21 | 49.36773 | 9.64380 | 29642 ft | 394 kts | 146° |
| 2026-05-07 11:21 | 49.34522 | 9.66793 | 30053 ft | 396 kts | 142° |
| 2026-05-07 11:21 | 49.32371 | 9.69464 | 30445 ft | 398 kts | 138° |
| 2026-05-07 11:21 | 49.30364 | 9.72336 | 30793 ft | 400 kts | 134° |
| 2026-05-07 11:22 | 49.28403 | 9.75343 | 31137 ft | 403 kts | 133° |
| 2026-05-07 11:22 | 49.26507 | 9.78543 | 31419 ft | 405 kts | 130° |
| 2026-05-07 11:22 | 49.24687 | 9.81802 | 31684 ft | 407 kts | 130° |
| 2026-05-07 11:22 | 49.22866 | 9.85083 | 31936 ft | 408 kts | 130° |
| 2026-05-07 11:23 | 49.21006 | 9.88413 | 32172 ft | 410 kts | 130° |
| 2026-05-07 11:23 | 49.19155 | 9.91704 | 32415 ft | 412 kts | 130° |
| 2026-05-07 11:23 | 49.17286 | 9.95014 | 32651 ft | 413 kts | 131° |
| 2026-05-07 11:23 | 49.15415 | 9.98311 | 32868 ft | 415 kts | 131° |
| 2026-05-07 11:24 | 49.13518 | 10.01647 | 33080 ft | 416 kts | 131° |
| 2026-05-07 11:24 | 49.11636 | 10.04951 | 33293 ft | 417 kts | 131° |
| 2026-05-07 11:24 | 49.09729 | 10.08291 | 33506 ft | 419 kts | 131° |
| 2026-05-07 11:24 | 49.07813 | 10.11645 | 33694 ft | 420 kts | 132° |
| 2026-05-07 11:25 | 49.05899 | 10.14990 | 33904 ft | 421 kts | 132° |
| 2026-05-07 11:25 | 49.03973 | 10.18349 | 34102 ft | 422 kts | 132° |
| 2026-05-07 11:25 | 49.02045 | 10.21707 | 34330 ft | 423 kts | 132° |
| 2026-05-07 11:25 | 49.00109 | 10.25075 | 34548 ft | 424 kts | 132° |
| 2026-05-07 11:26 | 48.98169 | 10.28447 | 34771 ft | 425 kts | 132° |
| 2026-05-07 11:26 | 48.96228 | 10.31815 | 34989 ft | 426 kts | 133° |
| 2026-05-07 11:26 | 48.94297 | 10.35162 | 35194 ft | 427 kts | 133° |
| 2026-05-07 11:26 | 48.92324 | 10.38577 | 35405 ft | 428 kts | 133° |
| 2026-05-07 11:27 | 48.90367 | 10.41961 | 35598 ft | 429 kts | 133° |
| 2026-05-07 11:27 | 48.88394 | 10.45368 | 35789 ft | 430 kts | 133° |
| 2026-05-07 11:27 | 48.86419 | 10.48770 | 35969 ft | 432 kts | 133° |
| 2026-05-07 11:27 | 48.84419 | 10.52213 | 36137 ft | 433 kts | 133° |
| 2026-05-07 11:28 | 48.82436 | 10.55626 | 36302 ft | 434 kts | 133° |
| 2026-05-07 11:28 | 48.80439 | 10.59054 | 36452 ft | 436 kts | 133° |
| 2026-05-07 11:28 | 48.78440 | 10.62483 | 36595 ft | 437 kts | 133° |
| 2026-05-07 11:28 | 48.76423 | 10.65939 | 36739 ft | 439 kts | 134° |
| 2026-05-07 11:29 | 48.74412 | 10.69377 | 36872 ft | 440 kts | 134° |
| 2026-05-07 11:29 | 48.72386 | 10.72840 | 36973 ft | 441 kts | 134° |
| 2026-05-07 11:29 | 48.68331 | 10.79755 | 36984 ft | 441 kts | 134° |
| 2026-05-07 11:30 | 48.64272 | 10.86659 | 36992 ft | 441 kts | 134° |
| 2026-05-07 11:30 | 48.60191 | 10.93584 | 36997 ft | 441 kts | 134° |
| 2026-05-07 11:31 | 48.56120 | 11.00470 | 37002 ft | 441 kts | 134° |
| 2026-05-07 11:31 | 48.52038 | 11.07359 | 37002 ft | 441 kts | 134° |
| 2026-05-07 11:32 | 48.45917 | 11.17652 | 36999 ft | 441 kts | 134° |
| 2026-05-07 11:33 | 48.41826 | 11.24510 | 36999 ft | 441 kts | 134° |
| 2026-05-07 11:33 | 48.37760 | 11.31311 | 36997 ft | 441 kts | 135° |
| 2026-05-07 11:34 | 48.33668 | 11.38136 | 36992 ft | 440 kts | 135° |
| 2026-05-07 11:34 | 48.29565 | 11.44963 | 36988 ft | 440 kts | 135° |
| 2026-05-07 11:35 | 48.25478 | 11.51742 | 36989 ft | 440 kts | 135° |
| 2026-05-07 11:35 | 48.21389 | 11.58510 | 36986 ft | 440 kts | 135° |
| 2026-05-07 11:36 | 48.17277 | 11.65298 | 36979 ft | 440 kts | 136° |
| 2026-05-07 11:36 | 48.13163 | 11.72070 | 36972 ft | 440 kts | 136° |
| 2026-05-07 11:37 | 48.09075 | 11.78784 | 36968 ft | 439 kts | 136° |
| 2026-05-07 11:37 | 48.04970 | 11.85509 | 36969 ft | 439 kts | 136° |
| 2026-05-07 11:38 | 48.00876 | 11.92201 | 36966 ft | 439 kts | 136° |
| 2026-05-07 11:38 | 47.96744 | 11.98930 | 36966 ft | 439 kts | 136° |
| 2026-05-07 11:39 | 47.92642 | 12.05598 | 36963 ft | 439 kts | 136° |
| 2026-05-07 11:39 | 47.88533 | 12.12263 | 36963 ft | 439 kts | 136° |
| 2026-05-07 11:40 | 47.84407 | 12.18936 | 36966 ft | 438 kts | 136° |
| 2026-05-07 11:40 | 47.80275 | 12.25599 | 36970 ft | 438 kts | 136° |
| 2026-05-07 11:41 | 47.76160 | 12.32223 | 36969 ft | 439 kts | 137° |
| 2026-05-07 11:41 | 47.72039 | 12.38837 | 36968 ft | 438 kts | 137° |
| 2026-05-07 11:42 | 47.67889 | 12.45476 | 36970 ft | 438 kts | 137° |
| 2026-05-07 11:42 | 47.63765 | 12.52064 | 36981 ft | 438 kts | 137° |
| 2026-05-07 11:43 | 47.59691 | 12.58792 | 36984 ft | 440 kts | 135° |
| 2026-05-07 11:43 | 47.55693 | 12.65655 | 36989 ft | 440 kts | 136° |
| 2026-05-07 11:44 | 47.51699 | 12.72475 | 36991 ft | 440 kts | 136° |
| 2026-05-07 11:44 | 47.47707 | 12.79252 | 36990 ft | 440 kts | 136° |
| 2026-05-07 11:45 | 47.43702 | 12.86028 | 36989 ft | 439 kts | 136° |
| 2026-05-07 11:45 | 47.39695 | 12.92788 | 36991 ft | 437 kts | 136° |
| 2026-05-07 11:46 | 47.35702 | 12.99501 | 36996 ft | 438 kts | 136° |
| 2026-05-07 11:46 | 47.31689 | 13.06234 | 36994 ft | 439 kts | 136° |
| 2026-05-07 11:47 | 47.27675 | 13.12953 | 37002 ft | 438 kts | 136° |
| 2026-05-07 11:47 | 47.23647 | 13.19671 | 36997 ft | 439 kts | 136° |
| 2026-05-07 11:48 | 47.19620 | 13.26375 | 36979 ft | 438 kts | 136° |
| 2026-05-07 11:48 | 47.15613 | 13.33031 | 36975 ft | 437 kts | 136° |
| 2026-05-07 11:49 | 47.11592 | 13.39694 | 36989 ft | 437 kts | 136° |
| 2026-05-07 11:49 | 47.07565 | 13.46351 | 36977 ft | 437 kts | 136° |
| 2026-05-07 11:50 | 47.03529 | 13.53008 | 36974 ft | 436 kts | 137° |
| 2026-05-07 11:50 | 46.99537 | 13.59572 | 36971 ft | 435 kts | 137° |
| 2026-05-07 11:51 | 46.95502 | 13.66194 | 36963 ft | 435 kts | 137° |
| 2026-05-07 11:51 | 46.91486 | 13.72767 | 36973 ft | 435 kts | 138° |
| 2026-05-07 11:52 | 46.87467 | 13.79326 | 36976 ft | 434 kts | 138° |
| 2026-05-07 11:52 | 46.83478 | 13.85820 | 36989 ft | 435 kts | 137° |
| 2026-05-07 11:53 | 46.79457 | 13.92356 | 36993 ft | 434 kts | 138° |
| 2026-05-07 11:53 | 46.75421 | 13.98895 | 36980 ft | 434 kts | 138° |
| 2026-05-07 11:54 | 46.71395 | 14.05405 | 36981 ft | 434 kts | 138° |
| 2026-05-07 11:54 | 46.67360 | 14.11917 | 36971 ft | 434 kts | 138° |
| 2026-05-07 11:55 | 46.63325 | 14.18409 | 36969 ft | 435 kts | 138° |
| 2026-05-07 11:55 | 46.59291 | 14.24885 | 36981 ft | 434 kts | 138° |
| 2026-05-07 11:56 | 46.55244 | 14.31364 | 36989 ft | 435 kts | 138° |
| 2026-05-07 11:56 | 46.51183 | 14.37850 | 36994 ft | 435 kts | 138° |
| 2026-05-07 11:57 | 46.47129 | 14.44310 | 36992 ft | 435 kts | 138° |
| 2026-05-07 11:57 | 46.43051 | 14.50798 | 36989 ft | 435 kts | 138° |
| 2026-05-07 11:58 | 46.38984 | 14.57247 | 36981 ft | 435 kts | 138° |
| 2026-05-07 11:58 | 46.34907 | 14.63698 | 36980 ft | 435 kts | 139° |
| 2026-05-07 11:59 | 46.30852 | 14.70101 | 36976 ft | 434 kts | 139° |
| 2026-05-07 11:59 | 46.26787 | 14.76504 | 36976 ft | 434 kts | 139° |
| 2026-05-07 12:00 | 46.22724 | 14.82890 | 36816 ft | 433 kts | 139° |
| 2026-05-07 12:00 | 46.18644 | 14.89284 | 36941 ft | 435 kts | 140° |
| 2026-05-07 12:01 | 46.14531 | 14.95713 | 36961 ft | 436 kts | 140° |
| 2026-05-07 12:01 | 46.10433 | 15.02106 | 36951 ft | 436 kts | 140° |
| 2026-05-07 12:02 | 46.06324 | 15.08501 | 36956 ft | 436 kts | 139° |
| 2026-05-07 12:02 | 46.02228 | 15.14861 | 36943 ft | 436 kts | 140° |
| 2026-05-07 12:03 | 45.98116 | 15.21238 | 36955 ft | 436 kts | 140° |
| 2026-05-07 12:03 | 45.93996 | 15.27604 | 36970 ft | 435 kts | 140° |
| 2026-05-07 12:04 | 45.89868 | 15.33967 | 36974 ft | 436 kts | 140° |
| 2026-05-07 12:04 | 45.85751 | 15.40302 | 36976 ft | 435 kts | 140° |
| 2026-05-07 12:05 | 45.81617 | 15.46645 | 36989 ft | 437 kts | 140° |
| 2026-05-07 12:05 | 45.77509 | 15.52936 | 36991 ft | 437 kts | 140° |
| 2026-05-07 12:06 | 45.73356 | 15.59280 | 36993 ft | 437 kts | 140° |
| 2026-05-07 12:06 | 45.69207 | 15.65601 | 36995 ft | 437 kts | 140° |
| 2026-05-07 12:07 | 45.65041 | 15.71937 | 36989 ft | 437 kts | 140° |
| 2026-05-07 12:07 | 45.60872 | 15.78260 | 36992 ft | 437 kts | 140° |
| 2026-05-07 12:08 | 45.56722 | 15.84541 | 36998 ft | 436 kts | 140° |
| 2026-05-07 12:08 | 45.52560 | 15.90827 | 36983 ft | 437 kts | 140° |
| 2026-05-07 12:09 | 45.48410 | 15.97079 | 36987 ft | 437 kts | 140° |
| 2026-05-07 12:09 | 45.44227 | 16.03362 | 36986 ft | 438 kts | 140° |
| 2026-05-07 12:10 | 45.40042 | 16.09639 | 36986 ft | 438 kts | 140° |
| 2026-05-07 12:10 | 45.35872 | 16.15877 | 36983 ft | 439 kts | 140° |
| 2026-05-07 12:11 | 45.31675 | 16.22142 | 36978 ft | 437 kts | 140° |
| 2026-05-07 12:11 | 45.27507 | 16.28349 | 36986 ft | 437 kts | 140° |
| 2026-05-07 12:12 | 45.23317 | 16.34573 | 36983 ft | 438 kts | 140° |
| 2026-05-07 12:12 | 45.19132 | 16.40777 | 36990 ft | 437 kts | 140° |
| 2026-05-07 12:13 | 45.14908 | 16.47019 | 36994 ft | 437 kts | 140° |
| 2026-05-07 12:13 | 45.10820 | 16.53374 | 36999 ft | 439 kts | 137° |
| 2026-05-07 12:14 | 45.06769 | 16.59791 | 36992 ft | 438 kts | 137° |
| 2026-05-07 12:14 | 45.02727 | 16.66155 | 36990 ft | 438 kts | 139° |
| 2026-05-07 12:15 | 44.98654 | 16.72535 | 36990 ft | 438 kts | 139° |
| 2026-05-07 12:15 | 44.94593 | 16.78877 | 36995 ft | 438 kts | 139° |
| 2026-05-07 12:16 | 44.90515 | 16.85228 | 37001 ft | 439 kts | 139° |
| 2026-05-07 12:16 | 44.86398 | 16.91622 | 37000 ft | 440 kts | 138° |
| 2026-05-07 12:17 | 44.82286 | 16.97997 | 37003 ft | 439 kts | 138° |
| 2026-05-07 12:17 | 44.78197 | 17.04323 | 37007 ft | 439 kts | 138° |
| 2026-05-07 12:18 | 44.74107 | 17.10632 | 37016 ft | 439 kts | 138° |
| 2026-05-07 12:18 | 44.70005 | 17.16948 | 37011 ft | 439 kts | 138° |
| 2026-05-07 12:19 | 44.65883 | 17.23279 | 37011 ft | 439 kts | 137° |
| 2026-05-07 12:19 | 44.61780 | 17.29568 | 37024 ft | 439 kts | 137° |
| 2026-05-07 12:20 | 44.57654 | 17.35878 | 37021 ft | 440 kts | 137° |
| 2026-05-07 12:20 | 44.53509 | 17.42205 | 37029 ft | 441 kts | 137° |
| 2026-05-07 12:21 | 44.49385 | 17.48481 | 37027 ft | 442 kts | 137° |
| 2026-05-07 12:21 | 44.45209 | 17.54822 | 37029 ft | 442 kts | 137° |
| 2026-05-07 12:22 | 44.41061 | 17.61112 | 37031 ft | 442 kts | 137° |
| 2026-05-07 12:22 | 44.36894 | 17.67411 | 37030 ft | 442 kts | 138° |
| 2026-05-07 12:23 | 44.32744 | 17.73672 | 37031 ft | 442 kts | 138° |
| 2026-05-07 12:23 | 44.28574 | 17.79948 | 37037 ft | 442 kts | 138° |
| 2026-05-07 12:24 | 44.24403 | 17.86210 | 37046 ft | 442 kts | 137° |
| 2026-05-07 12:24 | 44.20217 | 17.92483 | 37051 ft | 442 kts | 137° |
| 2026-05-07 12:25 | 44.16042 | 17.98728 | 37051 ft | 442 kts | 137° |
| 2026-05-07 12:25 | 44.11855 | 18.04972 | 37048 ft | 442 kts | 137° |
| 2026-05-07 12:26 | 44.07689 | 18.11174 | 37055 ft | 442 kts | 137° |
| 2026-05-07 12:26 | 44.03514 | 18.17374 | 37058 ft | 442 kts | 137° |
| 2026-05-07 12:27 | 43.99328 | 18.23579 | 37057 ft | 441 kts | 137° |
| 2026-05-07 12:27 | 43.95121 | 18.29802 | 37048 ft | 442 kts | 137° |
| 2026-05-07 12:28 | 43.90919 | 18.36002 | 37050 ft | 442 kts | 137° |
| 2026-05-07 12:28 | 43.86715 | 18.42190 | 37058 ft | 442 kts | 137° |
| 2026-05-07 12:29 | 43.82526 | 18.48342 | 37071 ft | 443 kts | 137° |
| 2026-05-07 12:29 | 43.78287 | 18.54555 | 37060 ft | 442 kts | 137° |
| 2026-05-07 12:30 | 43.74095 | 18.60685 | 37052 ft | 441 kts | 137° |
| 2026-05-07 12:30 | 43.69873 | 18.66849 | 37053 ft | 441 kts | 138° |
| 2026-05-07 12:31 | 43.65671 | 18.72964 | 37050 ft | 441 kts | 138° |
| 2026-05-07 12:31 | 43.61462 | 18.79082 | 37066 ft | 441 kts | 138° |
| 2026-05-07 12:32 | 43.57236 | 18.85209 | 37061 ft | 441 kts | 138° |
| 2026-05-07 12:32 | 43.53012 | 18.91319 | 37063 ft | 442 kts | 138° |
| 2026-05-07 12:33 | 43.46682 | 19.00450 | 37072 ft | 442 kts | 138° |
| 2026-05-07 12:33 | 43.42445 | 19.06549 | 37074 ft | 441 kts | 138° |
| 2026-05-07 12:34 | 43.38222 | 19.12613 | 37096 ft | 442 kts | 138° |
| 2026-05-07 12:34 | 43.33979 | 19.18688 | 37082 ft | 442 kts | 138° |
| 2026-05-07 12:35 | 43.29750 | 19.24733 | 37081 ft | 441 kts | 138° |
| 2026-05-07 12:35 | 43.25482 | 19.30823 | 37099 ft | 442 kts | 138° |
| 2026-05-07 12:36 | 43.21244 | 19.36854 | 37087 ft | 441 kts | 138° |
| 2026-05-07 12:36 | 43.16985 | 19.42905 | 37092 ft | 441 kts | 138° |
| 2026-05-07 12:37 | 43.12744 | 19.48916 | 37097 ft | 441 kts | 138° |
| 2026-05-07 12:37 | 43.08510 | 19.54902 | 37102 ft | 440 kts | 138° |
| 2026-05-07 12:38 | 43.04246 | 19.60922 | 37086 ft | 439 kts | 138° |
| 2026-05-07 12:38 | 43.00010 | 19.66884 | 37092 ft | 440 kts | 139° |
| 2026-05-07 12:39 | 42.95761 | 19.72860 | 37095 ft | 440 kts | 139° |
| 2026-05-07 12:39 | 42.91505 | 19.78825 | 37022 ft | 440 kts | 139° |
| 2026-05-07 12:40 | 42.89381 | 19.81800 | 36497 ft | 437 kts | 139° |
| 2026-05-07 12:40 | 42.87277 | 19.84745 | 36240 ft | 429 kts | 139° |
| 2026-05-07 12:40 | 42.85208 | 19.87638 | 36009 ft | 427 kts | 139° |
| 2026-05-07 12:40 | 42.83124 | 19.90547 | 35577 ft | 425 kts | 139° |
| 2026-05-07 12:41 | 42.81051 | 19.93435 | 35195 ft | 421 kts | 139° |
| 2026-05-07 12:41 | 42.79010 | 19.96274 | 34765 ft | 419 kts | 139° |
| 2026-05-07 12:41 | 42.76997 | 19.99075 | 34366 ft | 415 kts | 139° |
| 2026-05-07 12:41 | 42.75015 | 20.01894 | 33961 ft | 410 kts | 137° |
| 2026-05-07 12:42 | 42.73188 | 20.04787 | 33615 ft | 404 kts | 134° |
| 2026-05-07 12:42 | 42.71423 | 20.07706 | 33198 ft | 400 kts | 134° |
| 2026-05-07 12:42 | 42.69649 | 20.10641 | 32644 ft | 399 kts | 134° |
| 2026-05-07 12:42 | 42.67894 | 20.13539 | 32055 ft | 398 kts | 134° |
| 2026-05-07 12:43 | 42.66161 | 20.16400 | 31527 ft | 396 kts | 134° |
| 2026-05-07 12:43 | 42.64411 | 20.19285 | 31070 ft | 392 kts | 134° |
| 2026-05-07 12:43 | 42.62687 | 20.22125 | 30626 ft | 388 kts | 134° |
| 2026-05-07 12:43 | 42.60980 | 20.24933 | 30198 ft | 384 kts | 134° |
| 2026-05-07 12:44 | 42.59288 | 20.27715 | 29775 ft | 379 kts | 134° |
| 2026-05-07 12:44 | 42.57629 | 20.30438 | 29342 ft | 376 kts | 134° |
| 2026-05-07 12:44 | 42.55978 | 20.33144 | 28886 ft | 374 kts | 134° |
| 2026-05-07 12:44 | 42.54311 | 20.35875 | 28427 ft | 371 kts | 134° |
| 2026-05-07 12:45 | 42.52676 | 20.38551 | 27951 ft | 370 kts | 134° |
| 2026-05-07 12:45 | 42.51053 | 20.41203 | 27496 ft | 368 kts | 134° |
| 2026-05-07 12:45 | 42.49416 | 20.43876 | 27034 ft | 366 kts | 134° |
| 2026-05-07 12:45 | 42.47820 | 20.46483 | 26585 ft | 364 kts | 134° |
| 2026-05-07 12:46 | 42.46211 | 20.49105 | 26140 ft | 362 kts | 134° |
| 2026-05-07 12:46 | 42.44598 | 20.51737 | 25711 ft | 359 kts | 133° |
| 2026-05-07 12:46 | 42.43015 | 20.54312 | 25281 ft | 358 kts | 133° |
| 2026-05-07 12:46 | 42.41444 | 20.56867 | 24847 ft | 356 kts | 133° |
| 2026-05-07 12:47 | 42.39855 | 20.59451 | 24418 ft | 354 kts | 134° |
| 2026-05-07 12:47 | 42.38286 | 20.61999 | 23978 ft | 353 kts | 133° |
| 2026-05-07 12:47 | 42.36728 | 20.64522 | 23551 ft | 351 kts | 133° |
| 2026-05-07 12:47 | 42.35164 | 20.67059 | 23132 ft | 349 kts | 134° |
| 2026-05-07 12:48 | 42.33622 | 20.69557 | 22730 ft | 347 kts | 134° |
| 2026-05-07 12:48 | 42.32094 | 20.72030 | 22341 ft | 345 kts | 134° |
| 2026-05-07 12:48 | 42.30558 | 20.74515 | 21938 ft | 343 kts | 134° |
| 2026-05-07 12:48 | 42.29029 | 20.76988 | 21548 ft | 341 kts | 134° |
| 2026-05-07 12:49 | 42.27512 | 20.79435 | 21186 ft | 339 kts | 134° |
| 2026-05-07 12:49 | 42.26020 | 20.81842 | 20816 ft | 337 kts | 134° |
| 2026-05-07 12:49 | 42.24519 | 20.84260 | 20451 ft | 335 kts | 134° |
| 2026-05-07 12:49 | 42.23022 | 20.86669 | 20082 ft | 333 kts | 134° |
| 2026-05-07 12:50 | 42.21548 | 20.89041 | 19696 ft | 332 kts | 134° |
| 2026-05-07 12:50 | 42.20065 | 20.91424 | 19311 ft | 331 kts | 134° |
| 2026-05-07 12:50 | 42.18591 | 20.93791 | 18922 ft | 330 kts | 134° |
| 2026-05-07 12:50 | 42.17128 | 20.96141 | 18544 ft | 329 kts | 134° |
| 2026-05-07 12:51 | 42.15656 | 20.98501 | 18147 ft | 328 kts | 134° |
| 2026-05-07 12:51 | 42.14180 | 21.00865 | 17750 ft | 328 kts | 134° |
| 2026-05-07 12:51 | 42.12725 | 21.03195 | 17356 ft | 327 kts | 133° |
| 2026-05-07 12:51 | 42.11322 | 21.05564 | 16977 ft | 326 kts | 129° |
| 2026-05-07 12:52 | 42.10048 | 21.08090 | 16613 ft | 325 kts | 126° |
| 2026-05-07 12:52 | 42.08836 | 21.10667 | 16249 ft | 324 kts | 125° |
| 2026-05-07 12:52 | 42.07659 | 21.13190 | 15893 ft | 322 kts | 125° |
| 2026-05-07 12:52 | 42.06464 | 21.15748 | 15527 ft | 322 kts | 125° |
| 2026-05-07 12:53 | 42.05264 | 21.18309 | 15159 ft | 321 kts | 125° |
| 2026-05-07 12:53 | 42.04082 | 21.20828 | 14788 ft | 320 kts | 125° |
| 2026-05-07 12:53 | 42.02900 | 21.23344 | 14426 ft | 319 kts | 125° |
| 2026-05-07 12:53 | 42.01720 | 21.25850 | 14051 ft | 318 kts | 125° |
| 2026-05-07 12:54 | 42.00541 | 21.28354 | 13688 ft | 317 kts | 125° |
| 2026-05-07 12:54 | 41.99363 | 21.30853 | 13328 ft | 316 kts | 125° |
| 2026-05-07 12:54 | 41.98199 | 21.33316 | 12971 ft | 314 kts | 125° |
| 2026-05-07 12:54 | 41.97022 | 21.35806 | 12602 ft | 313 kts | 125° |
| 2026-05-07 12:55 | 41.95867 | 21.38246 | 12242 ft | 312 kts | 125° |
| 2026-05-07 12:55 | 41.94690 | 21.40731 | 11873 ft | 311 kts | 125° |
| 2026-05-07 12:55 | 41.93540 | 21.43159 | 11510 ft | 310 kts | 125° |
| 2026-05-07 12:55 | 41.92378 | 21.45609 | 11147 ft | 308 kts | 125° |
| 2026-05-07 12:56 | 41.91232 | 21.48027 | 10752 ft | 306 kts | 125° |
| 2026-05-07 12:56 | 41.90102 | 21.50405 | 10426 ft | 304 kts | 125° |
| 2026-05-07 12:56 | 41.88963 | 21.52802 | 10065 ft | 302 kts | 125° |
| 2026-05-07 12:56 | 41.87843 | 21.55156 | 9706 ft | 300 kts | 124° |
| 2026-05-07 12:57 | 41.86733 | 21.57488 | 9355 ft | 298 kts | 124° |
| 2026-05-07 12:57 | 41.85623 | 21.59815 | 9002 ft | 295 kts | 124° |
| 2026-05-07 12:57 | 41.84516 | 21.62135 | 8664 ft | 292 kts | 124° |
| 2026-05-07 12:57 | 41.83427 | 21.64417 | 8313 ft | 289 kts | 124° |
| 2026-05-07 12:58 | 41.82350 | 21.66673 | 7971 ft | 286 kts | 125° |
| 2026-05-07 12:58 | 41.81306 | 21.68914 | 7682 ft | 279 kts | 124° |
| 2026-05-07 12:58 | 41.80312 | 21.71101 | 7225 ft | 270 kts | 123° |
| 2026-05-07 12:58 | 41.79362 | 21.73199 | 6878 ft | 257 kts | 123° |
| 2026-05-07 12:59 | 41.78455 | 21.75192 | 6624 ft | 250 kts | 123° |
| 2026-05-07 12:59 | 41.77559 | 21.77145 | 6408 ft | 244 kts | 126° |
| 2026-05-07 12:59 | 41.76390 | 21.78715 | 6142 ft | 236 kts | 153° |
| 2026-05-07 12:59 | 41.74871 | 21.79352 | 5888 ft | 228 kts | 179° |
| 2026-05-07 13:00 | 41.73340 | 21.79073 | 5563 ft | 219 kts | 202° |
| 2026-05-07 13:00 | 41.72069 | 21.78008 | 5194 ft | 213 kts | 225° |
| 2026-05-07 13:00 | 41.71247 | 21.76417 | 4841 ft | 208 kts | 247° |
| 2026-05-07 13:00 | 41.70948 | 21.74570 | 4533 ft | 203 kts | 269° |
| 2026-05-07 13:01 | 41.71188 | 21.72714 | 4259 ft | 206 kts | 291° |
| 2026-05-07 13:01 | 41.71954 | 21.71088 | 4022 ft | 207 kts | 314° |
| 2026-05-07 13:01 | 41.73123 | 21.69975 | 4005 ft | 208 kts | 337° |
| 2026-05-07 13:01 | 41.74491 | 21.69449 | 4064 ft | 201 kts | 348° |
| 2026-05-07 13:02 | 41.75848 | 21.69091 | 4015 ft | 200 kts | 349° |
| 2026-05-07 13:02 | 41.77228 | 21.68704 | 3997 ft | 200 kts | 347° |
| 2026-05-07 13:02 | 41.78581 | 21.68280 | 3988 ft | 200 kts | 346° |
| 2026-05-07 13:02 | 41.79927 | 21.67826 | 3971 ft | 200 kts | 345° |
| 2026-05-07 13:03 | 41.81251 | 21.67364 | 3774 ft | 192 kts | 345° |
| 2026-05-07 13:03 | 41.82515 | 21.66918 | 3492 ft | 182 kts | 345° |
| 2026-05-07 13:03 | 41.83710 | 21.66497 | 3246 ft | 173 kts | 345° |
| 2026-05-07 13:03 | 41.84836 | 21.66100 | 2995 ft | 165 kts | 345° |
| 2026-05-07 13:04 | 41.85921 | 21.65721 | 2766 ft | 159 kts | 345° |
| 2026-05-07 13:04 | 41.87000 | 21.65343 | 2553 ft | 159 kts | 345° |
| 2026-05-07 13:04 | 41.88057 | 21.64972 | 2324 ft | 158 kts | 345° |
| 2026-05-07 13:04 | 41.89117 | 21.64600 | 2096 ft | 157 kts | 346° |
| 2026-05-07 13:05 | 41.90169 | 21.64234 | 1870 ft | 155 kts | 345° |
| 2026-05-07 13:05 | 41.91205 | 21.63870 | 1643 ft | 151 kts | 347° |
| 2026-05-07 13:05 | 41.92200 | 21.63522 | 1407 ft | 140 kts | 347° |
| 2026-05-07 13:05 | 41.93127 | 21.63201 | 1214 ft | 137 kts | 346° |
| 2026-05-07 13:06 | 41.94037 | 21.62880 | 1026 ft | 137 kts | 345° |
| 2026-05-07 13:06 | 41.94967 | 21.62560 | 813 ft | 136 kts | 345° |
| 2026-05-07 13:06 | 41.95842 | 21.62256 | 777 ft | 109 kts | 345° |
| 2026-05-07 13:06 | 41.96292 | 21.62098 | 779 ft | 38 kts | 346° |
| 2026-05-07 13:07 | 41.96476 | 21.62053 | 779 ft | 14 kts | 39° |
| 2026-05-07 13:07 | 41.96513 | 21.62164 | 784 ft | 11 kts | 78° |
| 2026-05-07 13:07 | 41.96523 | 21.62267 | 786 ft | 10 kts | 110° |
| 2026-05-07 13:07 | 41.96456 | 21.62308 | 786 ft | 11 kts | 165° |
| 2026-05-07 13:08 | 41.96338 | 21.62351 | 785 ft | 21 kts | 165° |
| 2026-05-07 13:08 | 41.96195 | 21.62403 | 784 ft | 18 kts | 165° |
| 2026-05-07 13:08 | 41.96122 | 21.62449 | 785 ft | 7 kts | 85° |
| 2026-05-07 13:08 | 41.96132 | 21.62509 | 787 ft | 5 kts | 76° |
| 2026-05-07 13:09 | 41.96141 | 21.62555 | 788 ft | 4 kts | 76° |
| 2026-05-07 13:09 | 41.96144 | 21.62571 | 789 ft | 0 kts | 76° |